Time;durP1;ratioP1;P1;durP2;ratioP2;P2;SDS_P1;SDS_P2;PMS_P1;PMS_P2;Temp;Humidity;BMP_temperature;BMP_pressure;BME280_temperature;BME280_humidity;BME280_pressure;Samples;Min_cycle;Max_cycle;Signal;HPM_P1;HPM_P2
2023/03/07 00:02:22;;;;;;;;;;;;;;;6.06;78.17;99139.41;5070743;28;19920;-82
2023/03/07 00:04:48;;;;;;;;;;;;;;;6.22;77.03;99155.91;5071257;28;19948;-86
2023/03/07 00:07:14;;;;;;;;;;;;;;;5.57;77.70;99146.56;5070534;28;19995;-83
2023/03/07 00:09:39;;;;;;;;;;;;;;;5.87;77.44;99151.66;5070966;28;19925;-82
2023/03/07 00:12:05;;;;;;;;;;;;;;;5.85;77.63;99148.19;5070369;28;19912;-83
2023/03/07 00:14:30;;;;;;;;;;;;;;;5.82;77.44;99153.44;5069980;28;19920;-83
2023/03/07 00:16:55;;;;;;;;;;;;;;;5.92;76.41;99148.16;5070558;28;19912;-83
2023/03/07 00:19:21;;;;;;;;;;;;;;;5.73;76.62;99143.88;5070497;28;19966;-83
2023/03/07 00:21:46;;;;;;;;;;;;;;;5.61;76.84;99141.31;5070796;28;19927;-83
2023/03/07 00:24:11;;;;;;;;;;;;;;;5.47;77.70;99134.41;5070074;28;20470;-83
2023/03/07 00:26:38;;;;;;;;;;;;;;;5.60;77.70;99135.22;5069926;28;19928;-83
2023/03/07 00:29:04;;;;;;;;;;;;;;;5.80;77.07;99137.75;5070713;28;19916;-83
2023/03/07 00:31:30;;;;;;;;;;;;;;;5.93;76.24;99133.31;5070808;28;20034;-83
2023/03/07 00:33:55;;;;;;;;;;;;;;;5.78;76.34;99131.66;5070486;28;20417;-83
2023/03/07 00:36:21;;;;;;;;;;;;;;;5.74;76.16;99122.06;5070525;28;20302;-82
2023/03/07 00:38:47;;;;;;;;;;;;;;;5.78;76.33;99125.53;5070004;28;19912;-83
2023/03/07 00:41:17;;;;;;;;;;;;;;;5.79;76.12;99128.16;5070464;28;20004;-83
2023/03/07 00:43:42;;;;;;;;;;;;;;;5.56;76.79;99126.53;5070548;28;19916;-83
2023/03/07 00:46:08;;;;;;;;;;;;;;;5.59;76.72;99125.63;5070322;28;19970;-85
2023/03/07 00:48:34;;;;;;;;;;;;;;;5.36;76.57;99126.59;5070110;28;20287;-84
2023/03/07 00:51:01;;;;;;;;;;;;;;;5.46;76.87;99126.56;5070031;28;20358;-85
2023/03/07 00:53:26;;;;;;;;;;;;;;;5.62;76.07;99125.59;5070477;28;19913;-83
2023/03/07 00:56:02;;;;;;;;;;;;;;;5.48;76.23;99128.28;5070763;28;19930;-82
2023/03/07 00:58:30;;;;;;;;;;;;;;;5.46;75.99;99127.41;5070802;28;19913;-82
2023/03/07 01:00:56;;;;;;;;;;;;;;;5.31;77.20;99112.63;5070678;28;19913;-90
2023/03/07 01:03:22;;;;;;;;;;;;;;;5.49;76.77;99111.72;5072227;28;20412;-81
2023/03/07 01:05:47;;;;;;;;;;;;;;;5.55;76.07;99106.44;5074698;28;19950;-81
2023/03/07 01:08:13;;;;;;;;;;;;;;;5.24;75.71;99107.47;5074319;28;19916;-82
2023/03/07 01:10:38;;;;;;;;;;;;;;;5.18;74.64;99097.88;5073819;28;20287;-82
2023/03/07 01:13:03;;;;;;;;;;;;;;;5.02;74.76;99095.28;5074163;28;19919;-82
2023/03/07 01:15:29;;;;;;;;;;;;;;;5.06;74.83;99077.84;5073562;28;19912;-82
2023/03/07 01:17:54;;;;;;;;;;;;;;;5.23;75.11;99083.03;5073558;28;19923;-82
2023/03/07 01:20:20;;;;;;;;;;;;;;;5.23;74.82;99082.16;5073880;28;19965;-82
2023/03/07 01:22:45;;;;;;;;;;;;;;;5.23;74.83;99088.25;5073577;28;19999;-82
2023/03/07 01:25:12;;;;;;;;;;;;;;;5.26;74.72;99079.53;5073544;28;19938;-83
2023/03/07 01:27:37;;;;;;;;;;;;;;;5.00;77.76;99072.63;5073232;28;19916;-81
2023/03/07 01:30:03;;;;;;;;;;;;;;;4.83;79.46;99077.91;5073505;28;20496;-82
2023/03/07 01:32:28;;;;;;;;;;;;;;;4.97;78.79;99070.03;5073264;28;19912;-82
2023/03/07 01:34:54;;;;;;;;;;;;;;;4.62;77.84;99078.81;5073459;28;20310;-80
2023/03/07 01:37:19;;;;;;;;;;;;;;;4.52;79.64;99087.50;5071799;28;19917;-85
2023/03/07 01:39:44;;;;;;;;;;;;;;;4.74;79.55;99088.34;5073096;28;19969;-82
2023/03/07 01:42:10;;;;;;;;;;;;;;;4.99;79.41;99089.22;5073208;28;19913;-83
2023/03/07 01:44:58;;;;;;;;;;;;;;;5.05;78.85;99083.06;5073095;28;20294;-83
2023/03/07 01:47:23;;;;;;;;;;;;;;;5.14;78.58;99078.72;5021535;28;20015;-84
2023/03/07 01:49:49;;;;;;;;;;;;;;;5.11;80.20;99073.50;5011385;28;20004;-84
2023/03/07 01:52:26;;;;;;;;;;;;;;;5.27;79.99;99074.31;5026374;28;20308;-84
2023/03/07 01:54:54;;;;;;;;;;;;;;;5.22;80.39;99086.53;5014656;28;19913;-82
2023/03/07 01:57:22;;;;;;;;;;;;;;;5.32;79.68;99080.38;5030739;28;19980;-82
2023/03/07 01:59:50;;;;;;;;;;;;;;;5.53;78.20;99082.06;5014171;28;20359;-82
2023/03/07 02:02:18;;;;;;;;;;;;;;;5.52;78.69;99076.84;5029524;28;20504;-80
2023/03/07 02:04:43;;;;;;;;;;;;;;;5.46;78.88;99074.25;5031326;28;19909;-81
2023/03/07 02:07:09;;;;;;;;;;;;;;;5.54;78.22;99081.16;5031706;28;19935;-80
2023/03/07 02:09:35;;;;;;;;;;;;;;;5.48;77.57;99078.56;5031330;28;19912;-85
2023/03/07 02:12:01;;;;;;;;;;;;;;;5.45;76.56;99091.66;5025355;28;19921;-82
2023/03/07 02:14:26;;;;;;;;;;;;;;;4.71;77.45;99089.25;5011328;28;19981;-82
2023/03/07 02:16:52;;;;;;;;;;;;;;;4.80;77.84;99097.09;5010504;28;19917;-82
2023/03/07 02:19:43;;;;;;;;;;;;;;;4.87;77.63;99099.69;5018615;28;19917;-82
2023/03/07 02:22:14;;;;;;;;;;;;;;;4.03;81.67;99096.16;5028490;28;19917;-82
2023/03/07 02:24:42;;;;;;;;;;;;;;;4.07;81.95;99096.19;5055756;28;20001;-82
2023/03/07 02:27:07;;;;;;;;;;;;;;;4.38;81.66;99092.75;5072429;28;20382;-81
2023/03/07 02:29:33;;;;;;;;;;;;;;;4.37;80.98;99101.44;5072165;28;19919;-80
2023/03/07 02:31:58;;;;;;;;;;;;;;;4.50;81.13;99097.09;5072657;28;19912;-80
2023/03/07 02:34:25;;;;;;;;;;;;;;;4.40;81.15;99094.50;5072101;28;19974;-81
2023/03/07 02:36:53;;;;;;;;;;;;;;;4.67;80.53;99095.34;5072193;28;20368;-81
2023/03/07 02:39:20;;;;;;;;;;;;;;;4.89;79.31;99090.09;5072410;28;20347;-81
2023/03/07 02:41:45;;;;;;;;;;;;;;;4.84;78.42;99090.09;5088193;28;20314;-81
2023/03/07 02:44:11;;;;;;;;;;;;;;;4.43;79.51;99096.22;5071944;28;19920;-82
2023/03/07 02:46:36;;;;;;;;;;;;;;;4.52;79.91;99088.38;5070670;28;20454;-82
2023/03/07 02:49:02;;;;;;;;;;;;;;;4.66;78.73;99089.25;5072227;28;20007;-82
2023/03/07 02:51:27;;;;;;;;;;;;;;;4.73;78.79;99079.66;5072033;28;20283;-82
2023/03/07 02:53:53;;;;;;;;;;;;;;;4.69;78.61;99085.75;5071784;28;19923;-82
2023/03/07 02:56:18;;;;;;;;;;;;;;;4.83;78.28;99078.78;5071756;28;20356;-81
2023/03/07 02:58:43;;;;;;;;;;;;;;;4.84;77.78;99083.13;5072012;28;20368;-81
2023/03/07 03:01:09;;;;;;;;;;;;;;;4.88;77.47;99091.84;5071305;28;19942;-82
2023/03/07 03:03:34;;;;;;;;;;;;;;;4.89;76.94;99083.13;5070562;28;20006;-84
2023/03/07 03:06:00;;;;;;;;;;;;;;;4.53;78.38;99084.91;5071587;28;19912;-84
2023/03/07 03:08:25;;;;;;;;;;;;;;;4.65;78.24;99086.66;5071968;28;19908;-83
2023/03/07 03:10:51;;;;;;;;;;;;;;;4.58;78.40;99082.28;5071278;28;19927;-83
2023/03/07 03:13:16;;;;;;;;;;;;;;;4.81;78.19;99088.34;5072014;28;19920;-82
2023/03/07 03:15:42;;;;;;;;;;;;;;;4.80;78.02;99086.63;5071566;28;20313;-82
2023/03/07 03:18:07;;;;;;;;;;;;;;;4.99;77.22;99084.84;5071420;28;19935;-82
2023/03/07 03:20:32;;;;;;;;;;;;;;;4.41;77.55;99097.97;5071107;28;20013;-82
2023/03/07 03:22:58;;;;;;;;;;;;;;;4.09;80.46;99093.56;5070282;28;19959;-83
2023/03/07 03:25:24;;;;;;;;;;;;;;;4.52;78.83;99097.97;5062707;28;19912;-83
2023/03/07 03:27:49;;;;;;;;;;;;;;;4.50;78.68;99095.34;5070685;28;20354;-82
2023/03/07 03:30:15;;;;;;;;;;;;;;;4.41;79.94;99100.56;5086586;28;19934;-82
2023/03/07 03:32:42;;;;;;;;;;;;;;;4.58;79.55;99090.97;5070677;28;19920;-85
2023/03/07 03:35:08;;;;;;;;;;;;;;;4.48;78.72;99094.50;5071572;28;20011;-83
2023/03/07 03:37:33;;;;;;;;;;;;;;;4.38;76.86;99098.81;5071392;28;20012;-83
2023/03/07 03:39:58;;;;;;;;;;;;;;;4.36;77.21;99102.31;5071328;28;19912;-83
2023/03/07 03:42:24;;;;;;;;;;;;;;;4.22;76.51;99103.16;5071036;28;20494;-84
2023/03/07 03:44:49;;;;;;;;;;;;;;;4.20;76.60;99099.69;5071079;28;19935;-81
2023/03/07 03:47:14;;;;;;;;;;;;;;;4.00;77.17;99101.38;5071083;28;19913;-81
2023/03/07 03:49:40;;;;;;;;;;;;;;;4.25;76.86;99097.94;5071389;28;19916;-83
2023/03/07 03:52:05;;;;;;;;;;;;;;;4.32;76.71;99096.22;5068989;28;20453;-83
2023/03/07 03:54:30;;;;;;;;;;;;;;;4.40;76.42;99099.72;5070772;28;20011;-88
2023/03/07 03:56:56;;;;;;;;;;;;;;;4.41;76.02;99098.81;5070726;28;19924;-82
2023/03/07 03:59:21;;;;;;;;;;;;;;;4.21;76.23;99100.56;5070746;28;19912;-83
2023/03/07 04:01:47;;;;;;;;;;;;;;;4.26;76.08;99097.09;5071151;28;19917;-80
2023/03/07 04:04:12;;;;;;;;;;;;;;;4.20;75.61;99090.97;5070548;28;19916;-81
2023/03/07 04:06:37;;;;;;;;;;;;;;;3.94;76.47;99089.22;5069946;28;19923;-82
2023/03/07 04:09:04;;;;;;;;;;;;;;;4.01;77.28;99097.91;5070943;28;20408;-82
2023/03/07 04:11:29;;;;;;;;;;;;;;;4.00;77.27;99096.16;5070564;28;19916;-82
2023/03/07 04:13:55;;;;;;;;;;;;;;;3.99;77.05;99110.09;5070867;28;19919;-82
2023/03/07 04:16:21;;;;;;;;;;;;;;;4.11;76.41;99112.72;5070168;28;19917;-81
2023/03/07 04:18:46;;;;;;;;;;;;;;;4.02;75.91;99115.31;5071001;28;20463;-82
2023/03/07 04:21:12;;;;;;;;;;;;;;;4.05;75.70;99110.97;5069390;28;19955;-83
2023/03/07 04:23:37;;;;;;;;;;;;;;;4.03;75.47;99117.94;5069340;28;19948;-83
2023/03/07 04:26:04;;;;;;;;;;;;;;;4.00;75.82;99130.97;5070248;28;19956;-83
2023/03/07 04:31:09;;;;;;;;;;;;;;;4.09;75.30;99117.94;5069795;28;19985;-86
2023/03/07 04:33:34;;;;;;;;;;;;;;;3.97;75.89;99115.31;5066174;28;19919;-83
2023/03/07 04:35:59;;;;;;;;;;;;;;;3.94;76.60;99120.53;5068319;28;19999;-83
2023/03/07 04:38:25;;;;;;;;;;;;;;;3.77;77.32;99117.88;5071603;28;19916;-81
2023/03/07 04:40:50;;;;;;;;;;;;;;;3.92;77.19;99117.91;5074574;28;19927;-83
2023/03/07 04:43:15;;;;;;;;;;;;;;;4.01;77.05;99113.56;5072379;28;19986;-78
2023/03/07 04:45:40;;;;;;;;;;;;;;;4.09;76.63;99122.28;5074489;28;19999;-80
2023/03/07 04:48:06;;;;;;;;;;;;;;;4.06;75.78;99119.66;5073209;28;19930;-80
2023/03/07 04:50:31;;;;;;;;;;;;;;;3.84;76.40;99126.56;5073743;28;20302;-80
2023/03/07 04:52:56;;;;;;;;;;;;;;;3.92;76.07;99125.75;5084040;28;19916;-80
2023/03/07 04:55:22;;;;;;;;;;;;;;;4.02;76.44;99123.16;5073515;28;19916;-86
2023/03/07 04:57:48;;;;;;;;;;;;;;;4.02;76.15;99118.78;5073264;28;19916;-86
2023/03/07 05:00:14;;;;;;;;;;;;;;;3.84;77.14;99113.53;5073601;28;20012;-80
2023/03/07 05:02:39;;;;;;;;;;;;;;;3.66;78.11;99116.94;5074130;28;19920;-82
2023/03/07 05:05:05;;;;;;;;;;;;;;;3.73;78.36;99114.34;5074021;28;19966;-82
2023/03/07 05:07:30;;;;;;;;;;;;;;;3.60;79.34;99136.06;5074832;28;19946;-90
2023/03/07 05:09:56;;;;;;;;;;;;;;;3.44;80.96;99136.84;5072768;28;19920;-85
2023/03/07 05:12:21;;;;;;;;;;;;;;;3.84;80.05;99131.78;5072061;28;19923;-88
2023/03/07 05:14:47;;;;;;;;;;;;;;;4.01;79.73;99150.13;5073091;28;20286;-86
2023/03/07 05:17:12;;;;;;;;;;;;;;;4.19;80.09;99151.91;5089684;28;19913;-85
2023/03/07 05:19:37;;;;;;;;;;;;;;;4.37;79.23;99144.09;5094410;28;19916;-89
2023/03/07 05:22:04;;;;;;;;;;;;;;;4.48;78.63;99142.38;5095884;28;19927;-88
2023/03/07 05:24:30;;;;;;;;;;;;;;;4.58;78.51;99137.16;5081035;28;20520;-87
2023/03/07 05:26:56;;;;;;;;;;;;;;;4.65;78.63;99128.44;5078747;28;19912;-88
2023/03/07 05:29:21;;;;;;;;;;;;;;;4.73;78.80;99131.91;5077818;28;19916;-87
2023/03/07 05:31:46;;;;;;;;;;;;;;;4.79;78.37;99128.44;5077011;28;19965;-90
2023/03/07 05:34:12;;;;;;;;;;;;;;;4.82;78.05;99133.66;5079495;28;19913;-89
2023/03/07 05:36:37;;;;;;;;;;;;;;;4.86;78.12;99134.53;5077905;28;20464;-87
2023/03/07 05:39:03;;;;;;;;;;;;;;;4.84;78.27;99132.78;5078657;28;19916;-87
2023/03/07 05:41:29;;;;;;;;;;;;;;;5.03;77.86;99124.91;5076209;28;19912;-87
2023/03/07 05:43:55;;;;;;;;;;;;;;;5.12;77.94;99132.75;5077075;28;19916;-90
2023/03/07 05:46:20;;;;;;;;;;;;;;;5.07;78.08;99128.41;5075959;28;19994;-90
2023/03/07 05:48:45;;;;;;;;;;;;;;;4.98;78.70;99131.91;5073746;28;20310;-91
2023/03/07 05:51:11;;;;;;;;;;;;;;;5.20;78.52;99117.94;5075097;28;19930;-89
2023/03/07 05:53:36;;;;;;;;;;;;;;;5.45;78.36;99127.44;5074524;28;19931;-90
2023/03/07 05:56:02;;;;;;;;;;;;;;;5.33;78.97;99137.06;5070849;28;20010;-94
2023/03/07 05:58:27;;;;;;;;;;;;;;;5.69;78.84;99129.09;5071240;28;19923;-92
2023/03/07 06:00:52;;;;;;;;;;;;;;;5.71;78.83;99133.41;5063256;28;20381;-90
2023/03/07 06:03:18;;;;;;;;;;;;;;;5.64;79.33;99138.69;5073095;28;19913;-94
2023/03/07 06:05:43;;;;;;;;;;;;;;;5.68;79.56;99151.75;5070600;28;19916;-88
2023/03/07 06:08:08;;;;;;;;;;;;;;;5.79;78.37;99150.84;5066170;28;20000;-89
2023/03/07 06:10:33;;;;;;;;;;;;;;;5.97;78.28;99144.69;5068497;28;19965;-90
2023/03/07 06:12:59;;;;;;;;;;;;;;;6.22;78.19;99142.81;5072829;28;19924;-91
2023/03/07 06:15:24;;;;;;;;;;;;;;;6.50;76.48;99140.84;5072195;28;19916;-91
2023/03/07 06:17:51;;;;;;;;;;;;;;;6.21;75.07;99144.56;5070562;28;20097;-88
2023/03/07 06:20:19;;;;;;;;;;;;;;;6.32;75.67;99156.69;5058556;28;20306;-88
2023/03/07 06:22:45;;;;;;;;;;;;;;;6.53;75.14;99155.69;5071303;28;19931;-89
2023/03/07 06:25:10;;;;;;;;;;;;;;;6.36;74.27;99154.06;5072136;28;19920;-90
2023/03/07 06:27:36;;;;;;;;;;;;;;;6.05;75.31;99156.00;5072400;28;19963;-89
2023/03/07 06:30:01;;;;;;;;;;;;;;;6.21;75.58;99162.00;5072332;28;19920;-91
2023/03/07 06:32:26;;;;;;;;;;;;;;;6.62;75.31;99153.00;5104552;28;19966;-90
2023/03/07 06:34:52;;;;;;;;;;;;;;;7.05;74.26;99154.41;5072087;28;19920;-87
2023/03/07 06:37:17;;;;;;;;;;;;;;;7.07;72.87;99152.63;5072357;28;19912;-89
2023/03/07 06:39:42;;;;;;;;;;;;;;;7.21;72.49;99163.00;5072322;28;20388;-88
2023/03/07 06:42:08;;;;;;;;;;;;;;;7.26;72.60;99162.06;5071620;28;19934;-88
2023/03/07 06:44:33;;;;;;;;;;;;;;;6.73;72.55;99171.28;5072469;28;19916;-87
2023/03/07 06:46:58;;;;;;;;;;;;;;;7.11;73.56;99163.06;5071747;28;20399;-89
2023/03/07 06:49:24;;;;;;;;;;;;;;;7.40;74.19;99166.28;5071636;28;19912;-88
2023/03/07 06:51:49;;;;;;;;;;;;;;;8.05;70.53;99164.66;5071938;28;19912;-89
2023/03/07 06:54:14;;;;;;;;;;;;;;;8.46;69.48;99162.34;5071627;28;19927;-90
2023/03/07 06:56:40;;;;;;;;;;;;;;;8.75;68.76;99161.91;5071649;28;20014;-86
2023/03/07 06:59:05;;;;;;;;;;;;;;;9.14;68.88;99164.78;5072122;28;19912;-87
2023/03/07 07:01:30;;;;;;;;;;;;;;;9.32;67.92;99165.34;5071631;28;20007;-91
2023/03/07 07:03:56;;;;;;;;;;;;;;;9.48;66.34;99161.53;5071056;28;20099;-86
2023/03/07 07:06:21;;;;;;;;;;;;;;;9.71;67.22;99161.97;5072013;28;19916;-87
2023/03/07 07:08:46;;;;;;;;;;;;;;;10.09;66.28;99162.94;5071757;28;20383;-88
2023/03/07 07:11:12;;;;;;;;;;;;;;;10.05;64.98;99172.66;5072640;28;19912;-87
2023/03/07 07:13:37;;;;;;;;;;;;;;;9.59;65.24;99185.03;5071943;28;20378;-88
2023/03/07 07:16:04;;;;;;;;;;;;;;;9.52;67.01;99186.03;5071709;28;19919;-85
2023/03/07 07:18:29;;;;;;;;;;;;;;;9.80;66.12;99174.94;5071674;28;19913;-88
2023/03/07 07:20:55;;;;;;;;;;;;;;;9.82;66.71;99174.03;5071203;28;20291;-90
2023/03/07 07:23:20;;;;;;;;;;;;;;;10.08;64.12;99179.66;5071535;28;20003;-88
2023/03/07 07:25:45;;;;;;;;;;;;;;;10.10;64.79;99181.38;5071867;28;20388;-85
2023/03/07 07:28:11;;;;;;;;;;;;;;;10.27;64.17;99175.72;5072049;28;19912;-88
2023/03/07 07:30:36;;;;;;;;;;;;;;;10.69;63.08;99169.50;5071533;28;19965;-88
2023/03/07 07:33:01;;;;;;;;;;;;;;;10.69;63.38;99170.41;5072665;28;19917;-88
2023/03/07 07:35:27;;;;;;;;;;;;;;;11.27;62.05;99168.06;5072049;28;19912;-87
2023/03/07 07:37:52;;;;;;;;;;;;;;;11.57;62.28;99154.94;5072542;28;19962;-88
2023/03/07 07:40:18;;;;;;;;;;;;;;;11.87;61.31;99162.91;5072260;28;20279;-88
2023/03/07 07:42:43;;;;;;;;;;;;;;;12.14;58.97;99165.69;5071215;28;19912;-87
2023/03/07 07:45:09;;;;;;;;;;;;;;;12.10;59.64;99166.72;5069888;28;19969;-87
2023/03/07 07:47:34;;;;;;;;;;;;;;;12.32;59.21;99161.63;5071293;28;19919;-88
2023/03/07 07:50:00;;;;;;;;;;;;;;;12.49;60.12;99161.97;5071353;28;19924;-88
2023/03/07 07:52:25;;;;;;;;;;;;;;;12.74;58.57;99157.69;5071503;28;20325;-88
2023/03/07 07:54:50;;;;;;;;;;;;;;;12.89;57.16;99154.53;5071411;28;19951;-88
2023/03/07 07:57:15;;;;;;;;;;;;;;;12.94;58.35;99152.59;5071274;28;19913;-87
2023/03/07 07:59:41;;;;;;;;;;;;;;;12.87;58.22;99151.94;5071564;28;19919;-87
2023/03/07 08:02:09;;;;;;;;;;;;;;;13.03;58.48;99149.63;5071552;28;19915;-87
2023/03/07 08:04:34;;;;;;;;;;;;;;;12.79;58.96;99150.44;5071332;28;19912;-87
2023/03/07 08:07:00;;;;;;;;;;;;;;;12.96;59.54;99157.84;5071697;28;19939;-87
2023/03/07 08:09:25;;;;;;;;;;;;;;;13.46;56.68;99152.63;5071585;28;20388;-87
2023/03/07 08:11:50;;;;;;;;;;;;;;;13.29;57.61;99149.69;5070946;28;19916;-88
2023/03/07 08:14:15;;;;;;;;;;;;;;;13.30;57.91;99149.63;5071272;28;20010;-88
2023/03/07 08:16:41;;;;;;;;;;;;;;;13.39;57.50;99148.44;5070992;28;19920;-87
2023/03/07 08:19:06;;;;;;;;;;;;;;;13.74;54.82;99146.34;5071179;28;19913;-88
2023/03/07 08:21:31;;;;;;;;;;;;;;;13.89;54.71;99143.13;5071049;28;20295;-88
2023/03/07 08:23:57;;;;;;;;;;;;;;;14.14;54.59;99140.38;5071249;28;20309;-88
2023/03/07 08:26:22;;;;;;;;;;;;;;;14.31;54.71;99138.88;5071136;28;19912;-88
2023/03/07 08:28:47;;;;;;;;;;;;;;;14.44;53.52;99139.25;5071791;28;19920;-88
2023/03/07 08:31:14;;;;;;;;;;;;;;;14.05;55.22;99143.38;5071248;28;19912;-87
2023/03/07 08:33:39;;;;;;;;;;;;;;;14.27;52.82;99137.25;5071129;28;20065;-87
2023/03/07 08:36:05;;;;;;;;;;;;;;;14.40;53.05;99132.34;5071006;28;19970;-87
2023/03/07 08:38:30;;;;;;;;;;;;;;;14.71;53.17;99141.78;5071166;28;19917;-87
2023/03/07 08:41:00;;;;;;;;;;;;;;;14.95;50.19;99143.41;5070954;28;19924;-88
2023/03/07 08:43:26;;;;;;;;;;;;;;;14.78;50.82;99141.47;5069722;28;20370;-87
2023/03/07 08:45:51;;;;;;;;;;;;;;;14.99;50.13;99130.88;5071330;28;19913;-88
2023/03/07 08:48:18;;;;;;;;;;;;;;;14.92;49.50;99132.91;5071535;28;20402;-87
2023/03/07 08:50:43;;;;;;;;;;;;;;;15.03;51.07;99129.81;5071112;28;20435;-87
2023/03/07 08:53:08;;;;;;;;;;;;;;;14.68;51.75;99127.69;5070935;28;19998;-87
2023/03/07 08:55:34;;;;;;;;;;;;;;;14.90;50.98;99118.81;5070866;28;19912;-87
2023/03/07 08:58:00;;;;;;;;;;;;;;;15.15;49.08;99125.75;5070608;28;19913;-87
2023/03/07 09:00:25;;;;;;;;;;;;;;;15.46;47.77;99119.09;5070900;28;19913;-88
2023/03/07 09:02:50;;;;;;;;;;;;;;;14.99;50.61;99120.25;5071298;28;19924;-87
2023/03/07 09:05:16;;;;;;;;;;;;;;;15.08;49.45;99111.88;5070940;28;20365;-87
2023/03/07 09:07:41;;;;;;;;;;;;;;;14.97;51.25;99122.09;5071069;28;19918;-87
2023/03/07 09:10:07;;;;;;;;;;;;;;;15.08;50.18;99129.63;5070910;28;19912;-87
2023/03/07 09:12:33;;;;;;;;;;;;;;;14.94;48.96;99124.88;5070868;28;20275;-87
2023/03/07 09:14:58;;;;;;;;;;;;;;;15.10;49.68;99128.59;5070950;28;20390;-87
2023/03/07 09:17:23;;;;;;;;;;;;;;;15.40;48.17;99121.13;5070487;28;19935;-87
2023/03/07 09:19:49;;;;;;;;;;;;;;;15.27;48.05;99113.75;5070609;28;20389;-87
2023/03/07 09:22:14;;;;;;;;;;;;;;;14.96;48.93;99121.22;5070742;28;19918;-87
2023/03/07 09:24:40;;;;;;;;;;;;;;;13.99;51.13;99118.91;5070581;28;19917;-87
2023/03/07 09:27:05;;;;;;;;;;;;;;;14.05;51.88;99114.22;5074237;28;19912;-87
2023/03/07 09:29:30;;;;;;;;;;;;;;;14.23;52.98;99112.66;5074237;28;19969;-87
2023/03/07 09:31:56;;;;;;;;;;;;;;;14.41;52.75;99116.38;5074697;28;19913;-87
2023/03/07 09:34:21;;;;;;;;;;;;;;;14.73;52.59;99114.22;5075617;28;19912;-87
2023/03/07 09:36:48;;;;;;;;;;;;;;;14.93;51.58;99104.56;5075162;28;19935;-86
2023/03/07 09:39:15;;;;;;;;;;;;;;;15.08;51.31;99111.03;5073889;28;19921;-92
2023/03/07 09:41:43;;;;;;;;;;;;;;;15.07;51.32;99111.94;5089666;28;19983;-86
2023/03/07 09:44:41;;;;;;;;;;;;;;;15.16;51.52;99106.25;5099990;28;19908;-87
2023/03/07 09:47:14;;;;;;;;;;;;;;;15.01;51.74;99107.75;5045238;28;19963;-87
2023/03/07 09:49:42;;;;;;;;;;;;;;;14.63;50.39;99110.22;5015252;28;19913;-87
2023/03/07 09:52:13;;;;;;;;;;;;;;;14.17;53.83;99102.28;5031496;28;19913;-88
2023/03/07 09:54:53;;;;;;;;;;;;;;;14.51;52.38;99099.13;5030951;28;19928;-89
2023/03/07 09:57:24;;;;;;;;;;;;;;;14.84;51.61;99105.81;5031100;28;19913;-88
2023/03/07 09:59:52;;;;;;;;;;;;;;;14.95;50.53;99100.94;5031094;28;19920;-88
2023/03/07 10:02:46;;;;;;;;;;;;;;;14.97;50.72;99093.75;5030439;28;19921;-90
2023/03/07 10:05:30;;;;;;;;;;;;;;;15.03;51.33;99084.66;5030769;28;20008;-88
2023/03/07 10:07:56;;;;;;;;;;;;;;;15.14;49.73;99082.41;5029873;28;20319;-91
2023/03/07 10:10:41;;;;;;;;;;;;;;;15.04;49.06;99078.41;5024259;28;19920;-86
2023/03/07 10:13:10;;;;;;;;;;;;;;;15.07;48.54;99088.03;5027267;28;19921;-87
2023/03/07 10:15:41;;;;;;;;;;;;;;;14.99;49.13;99075.09;5017863;28;19981;-90
2023/03/07 10:18:25;;;;;;;;;;;;;;;15.10;49.47;99074.63;5018258;28;20393;-86
2023/03/07 10:20:58;;;;;;;;;;;;;;;15.25;49.28;99073.09;5034555;28;19917;-86
2023/03/07 10:23:28;;;;;;;;;;;;;;;15.53;48.72;99065.59;5062704;28;19965;-89
2023/03/07 10:26:15;;;;;;;;;;;;;;;15.74;48.00;99057.59;5065062;28;19944;-92
2023/03/07 10:28:42;;;;;;;;;;;;;;;15.62;49.01;99055.50;5070434;28;20418;-91
2023/03/07 10:31:43;;;;;;;;;;;;;;;15.67;48.99;99041.06;5072078;28;19912;-92
2023/03/07 10:34:16;;;;;;;;;;;;;;;15.85;48.54;99042.03;5020686;28;19917;-91
2023/03/07 10:36:43;;;;;;;;;;;;;;;15.81;48.50;99037.78;5026424;28;19921;-92
2023/03/07 10:39:19;;;;;;;;;;;;;;;15.72;50.86;99038.19;5029496;28;19988;-88
2023/03/07 10:41:44;;;;;;;;;;;;;;;15.83;50.14;99029.72;5029150;28;19913;-89
2023/03/07 10:44:14;;;;;;;;;;;;;;;15.77;49.68;99017.59;5029804;28;19996;-88
2023/03/07 10:46:39;;;;;;;;;;;;;;;16.02;49.07;99027.06;5029892;28;19913;-88
2023/03/07 10:49:12;;;;;;;;;;;;;;;16.34;47.64;99014.00;5029570;28;19990;-88
2023/03/07 10:51:43;;;;;;;;;;;;;;;16.41;46.37;99005.63;5011989;28;19917;-86
2023/03/07 10:54:17;;;;;;;;;;;;;;;16.34;44.84;99004.19;5008125;28;19924;-85
2023/03/07 10:57:01;;;;;;;;;;;;;;;16.13;44.73;98994.59;5009079;28;19914;-89
2023/03/07 10:59:26;;;;;;;;;;;;;;;15.97;45.61;98989.19;5009608;28;20355;-85
2023/03/07 11:01:54;;;;;;;;;;;;;;;15.69;47.60;98982.50;5008937;28;19913;-85
2023/03/07 11:04:20;;;;;;;;;;;;;;;15.83;45.59;98984.53;5009318;28;19925;-84
2023/03/07 11:06:56;;;;;;;;;;;;;;;16.05;44.88;98981.69;5009317;28;19971;-84
2023/03/07 11:09:24;;;;;;;;;;;;;;;16.38;44.33;98971.16;5051079;28;19963;-83
2023/03/07 11:11:55;;;;;;;;;;;;;;;15.91;44.64;98963.72;5050526;28;20365;-83
2023/03/07 11:14:21;;;;;;;;;;;;;;;15.76;43.46;98958.19;5051527;28;19919;-83
2023/03/07 11:16:46;;;;;;;;;;;;;;;15.93;41.64;98951.25;5065468;28;19912;-83
2023/03/07 11:19:30;;;;;;;;;;;;;;;16.06;41.79;98957.66;5050933;28;19912;-84
2023/03/07 11:21:56;;;;;;;;;;;;;;;16.11;42.43;98950.34;5050338;28;19916;-84
2023/03/07 11:24:26;;;;;;;;;;;;;;;16.01;45.62;98940.22;5050818;28;20459;-84
2023/03/07 11:26:59;;;;;;;;;;;;;;;16.11;45.80;98934.38;5050610;28;20410;-84
2023/03/07 11:29:27;;;;;;;;;;;;;;;16.19;46.00;98927.78;5053988;28;19924;-85
2023/03/07 11:31:52;;;;;;;;;;;;;;;16.11;45.95;98929.06;5070438;28;19943;-84
2023/03/07 11:34:32;;;;;;;;;;;;;;;16.09;46.13;98919.41;5070496;28;19955;-85
2023/03/07 11:37:07;;;;;;;;;;;;;;;16.10;46.42;98908.69;5070100;28;19913;-85
2023/03/07 11:40:07;;;;;;;;;;;;;;;15.99;44.54;98911.03;5070682;28;19917;-84
2023/03/07 11:42:36;;;;;;;;;;;;;;;15.88;42.69;98897.41;5047892;28;19934;-85
2023/03/07 11:45:31;;;;;;;;;;;;;;;16.22;43.85;98899.25;5047783;28;20306;-85
2023/03/07 11:47:56;;;;;;;;;;;;;;;16.29;44.92;98890.00;5007951;28;20012;-85
2023/03/07 11:50:27;;;;;;;;;;;;;;;16.52;43.81;98895.09;5008555;28;20017;-86
2023/03/07 11:53:07;;;;;;;;;;;;;;;16.49;44.82;98882.78;5008926;28;19917;-86
2023/03/07 11:55:51;;;;;;;;;;;;;;;16.41;41.49;98869.88;5009320;28;19913;-84
2023/03/07 11:58:31;;;;;;;;;;;;;;;16.39;42.20;98866.44;5008753;28;19913;-85
2023/03/07 12:00:56;;;;;;;;;;;;;;;16.52;41.24;98868.47;5008300;28;19914;-87
2023/03/07 12:03:35;;;;;;;;;;;;;;;16.64;42.15;98858.00;5003320;28;19939;-86
2023/03/07 12:06:19;;;;;;;;;;;;;;;16.47;41.15;98868.72;5001153;28;19936;-89
2023/03/07 12:08:47;;;;;;;;;;;;;;;16.44;40.46;98851.09;5004638;28;19914;-86
2023/03/07 12:11:18;;;;;;;;;;;;;;;16.60;43.09;98850.28;4988678;28;20007;-87
2023/03/07 12:13:57;;;;;;;;;;;;;;;16.44;39.55;98844.91;4988322;28;19925;-86
2023/03/07 12:16:26;;;;;;;;;;;;;;;16.51;41.38;98845.44;4979492;28;19925;-83
2023/03/07 12:19:02;;;;;;;;;;;;;;;16.69;41.11;98847.13;4968539;28;19933;-86
2023/03/07 12:21:46;;;;;;;;;;;;;;;16.69;39.96;98846.28;4969045;28;20435;-85
2023/03/07 12:24:22;;;;;;;;;;;;;;;16.81;39.50;98841.13;5005625;28;19912;-87
2023/03/07 12:26:57;;;;;;;;;;;;;;;17.03;38.01;98837.34;5049877;28;19909;-86
2023/03/07 12:29:35;;;;;;;;;;;;;;;17.12;39.00;98833.31;5050172;28;20311;-85
2023/03/07 12:32:04;;;;;;;;;;;;;;;17.41;39.26;98831.66;5049731;28;19917;-89
2023/03/07 12:34:38;;;;;;;;;;;;;;;17.39;41.27;98836.22;5050484;28;19916;-85
2023/03/07 12:37:06;;;;;;;;;;;;;;;17.24;39.58;98824.63;5049686;28;20385;-86
2023/03/07 12:39:36;;;;;;;;;;;;;;;17.23;41.00;98822.91;5050237;28;19974;-88
2023/03/07 12:42:03;;;;;;;;;;;;;;;17.02;40.66;98827.59;5050839;28;19909;-87
2023/03/07 12:44:41;;;;;;;;;;;;;;;16.94;38.64;98829.84;5065938;28;19920;-85
2023/03/07 12:47:25;;;;;;;;;;;;;;;16.88;38.55;98823.03;5065811;28;19920;-86
2023/03/07 12:50:29;;;;;;;;;;;;;;;16.99;38.28;98828.66;5050450;28;20569;-87
2023/03/07 12:53:10;;;;;;;;;;;;;;;16.96;38.80;98819.94;5048415;28;19916;-85
2023/03/07 12:55:44;;;;;;;;;;;;;;;17.25;37.70;98817.47;5048165;28;20374;-85
2023/03/07 12:58:16;;;;;;;;;;;;;;;17.62;38.36;98815.38;5047959;28;19912;-84
2023/03/07 13:00:49;;;;;;;;;;;;;;;17.68;40.43;98807.88;5049012;28;19908;-84